Time;durP1;ratioP1;P1;durP2;ratioP2;P2;SDS_P1;SDS_P2;PMS_P1;PMS_P2;Temp;Humidity;BMP_temperature;BMP_pressure;BME280_temperature;BME280_humidity;BME280_pressure;Samples;Min_cycle;Max_cycle;Signal;HPM_P1;HPM_P2
2023/03/14 00:00:21;;;;;;;11.68;3.25;;;;;;;10.07;100.00;98797.47;10420208;28;20037;-76
2023/03/14 00:05:21;;;;;;;9.75;4.15;;;;;;;10.08;100.00;98791.78;10417452;28;20505;-76
2023/03/14 00:10:21;;;;;;;15.85;3.30;;;;;;;10.08;100.00;98780.97;10416829;28;20094;-75
2023/03/14 00:15:22;;;;;;;7.55;3.42;;;;;;;10.03;100.00;98783.63;10416665;28;20068;-75
2023/03/14 00:20:22;;;;;;;12.63;3.72;;;;;;;10.09;100.00;98798.06;10417925;28;20481;-75
2023/03/14 00:25:23;;;;;;;9.13;2.50;;;;;;;9.98;100.00;98786.22;10416634;28;20029;-76
2023/03/14 00:30:23;;;;;;;11.48;3.38;;;;;;;9.96;100.00;98789.19;10415442;28;20149;-76
2023/03/14 00:35:23;;;;;;;5.35;2.50;;;;;;;9.85;100.00;98771.16;10417154;28;20030;-77
2023/03/14 00:40:24;;;;;;;18.35;5.55;;;;;;;9.81;100.00;98775.41;10417721;28;20034;-76
2023/03/14 00:45:24;;;;;;;20.10;4.28;;;;;;;9.77;100.00;98798.59;10416182;28;20038;-75
2023/03/14 00:50:24;;;;;;;11.02;4.03;;;;;;;9.80;100.00;98783.78;10416437;28;20048;-76
2023/03/14 00:55:25;;;;;;;16.48;5.22;;;;;;;9.73;100.00;98808.25;10398968;28;20017;-76
2023/03/14 01:00:25;;;;;;;12.45;4.13;;;;;;;9.72;100.00;98812.00;10416607;28;20044;-76
2023/03/14 01:05:26;;;;;;;25.75;5.30;;;;;;;9.70;100.00;98811.41;10414286;28;20041;-76
2023/03/14 01:10:26;;;;;;;14.13;3.47;;;;;;;9.73;100.00;98811.78;10419997;28;20073;-76
2023/03/14 01:15:27;;;;;;;16.15;4.85;;;;;;;9.67;100.00;98801.13;10423291;28;20397;-75
2023/03/14 01:20:27;;;;;;;8.95;3.47;;;;;;;9.67;100.00;98784.91;10426069;28;20071;-75
2023/03/14 01:25:27;;;;;;;4.35;2.40;;;;;;;9.65;100.00;98765.41;10415778;28;20099;-75
2023/03/14 01:30:28;;;;;;;10.95;3.10;;;;;;;9.62;100.00;98768.59;10414338;28;20569;-76
2023/03/14 01:35:28;;;;;;;4.45;3.03;;;;;;;9.69;100.00;98793.56;10415235;28;20026;-76
2023/03/14 01:40:28;;;;;;;3.67;1.90;;;;;;;9.62;100.00;98790.22;10414721;28;20069;-75
2023/03/14 01:46:06;;;;;;;12.27;4.90;;;;;;;9.71;100.00;98796.88;10415206;28;20033;-76
2023/03/14 01:51:09;;;;;;;10.23;3.70;;;;;;;9.66;100.00;98784.06;10414609;28;20588;-75
2023/03/14 01:56:09;;;;;;;15.20;3.10;;;;;;;9.72;100.00;98779.59;10412617;28;20034;-74
2023/03/14 02:01:10;;;;;;;12.95;4.25;;;;;;;9.74;100.00;98774.75;10398490;28;20087;-75
2023/03/14 02:06:10;;;;;;;9.20;3.20;;;;;;;9.64;100.00;98774.59;10397623;28;20057;-75
2023/03/14 02:11:10;;;;;;;8.98;2.72;;;;;;;9.71;100.00;98769.84;10395783;28;20029;-76
2023/03/14 02:16:11;;;;;;;7.65;3.75;;;;;;;9.71;100.00;98765.25;10412748;28;20115;-74
2023/03/14 02:21:15;;;;;;;5.68;1.67;;;;;;;9.63;100.00;98754.81;10414790;28;20069;-75
2023/03/14 02:26:54;;;;;;;6.45;3.65;;;;;;;9.61;100.00;98756.16;10413448;28;20026;-74
2023/03/14 02:31:55;;;;;;;7.00;2.97;;;;;;;9.60;100.00;98759.91;10356877;28;20034;-75
2023/03/14 02:36:55;;;;;;;12.15;2.50;;;;;;;9.62;100.00;98753.19;10402454;28;20054;-75
2023/03/14 02:41:56;;;;;;;17.65;2.60;;;;;;;9.53;100.00;98758.19;10379297;28;20040;-75
2023/03/14 02:46:56;;;;;;;5.47;2.80;;;;;;;9.41;100.00;98749.34;10416021;28;20487;-75
2023/03/14 02:51:56;;;;;;;8.50;2.88;;;;;;;9.43;100.00;98749.06;10403344;28;20175;-75
2023/03/14 02:56:57;;;;;;;6.82;2.35;;;;;;;9.51;100.00;98736.00;10420953;28;20053;-75
2023/03/14 03:01:59;;;;;;;5.63;2.05;;;;;;;9.50;100.00;98728.94;10420145;28;20041;-76
2023/03/14 03:06:59;;;;;;;10.60;2.63;;;;;;;9.58;100.00;98726.94;10420635;28;20095;-75
2023/03/14 03:12:00;;;;;;;3.15;2.58;;;;;;;9.58;100.00;98713.41;10419790;28;20470;-75
2023/03/14 03:17:00;;;;;;;16.52;3.05;;;;;;;9.64;100.00;98720.53;10419019;28;20033;-75
2023/03/14 03:22:00;;;;;;;5.05;2.78;;;;;;;9.62;100.00;98720.78;10402289;28;20037;-75
2023/03/14 03:27:01;;;;;;;9.60;3.38;;;;;;;9.60;100.00;98722.06;10419761;28;20184;-75
2023/03/14 03:32:01;;;;;;;10.55;2.55;;;;;;;9.58;100.00;98716.13;10417841;28;20478;-75
2023/03/14 03:37:02;;;;;;;5.13;3.42;;;;;;;9.59;100.00;98718.56;10410704;28;20040;-75
2023/03/14 03:42:02;;;;;;;24.55;3.17;;;;;;;9.51;100.00;98719.78;10434248;28;20053;-75
2023/03/14 03:47:03;;;;;;;12.05;3.22;;;;;;;9.63;100.00;98732.41;10402019;28;20128;-75
2023/03/14 03:52:03;;;;;;;5.38;3.83;;;;;;;9.48;100.00;98717.56;10418016;28;20478;-75
2023/03/14 03:57:03;;;;;;;9.70;4.32;;;;;;;9.39;100.00;98729.03;10417727;28;20124;-74
2023/03/14 04:02:04;;;;;;;7.00;2.90;;;;;;;9.26;100.00;98728.25;10418438;28;20515;-75
2023/03/14 04:07:04;;;;;;;16.67;3.45;;;;;;;9.22;100.00;98731.66;10416967;28;20096;-75
2023/03/14 04:12:05;;;;;;;13.35;4.75;;;;;;;9.18;100.00;98730.53;10418173;28;20037;-74
2023/03/14 04:17:05;;;;;;;4.13;1.75;;;;;;;9.09;100.00;98730.06;10433578;28;20033;-72
2023/03/14 04:22:06;;;;;;;12.50;2.50;;;;;;;8.98;100.00;98723.69;10418196;28;20359;-72
2023/03/14 04:27:06;;;;;;;9.82;3.13;;;;;;;8.92;100.00;98721.94;10418087;28;20061;-71
2023/03/14 04:32:06;;;;;;;20.95;4.28;;;;;;;8.90;100.00;98721.34;10415950;28;20361;-72
2023/03/14 04:37:07;;;;;;;8.98;2.42;;;;;;;8.82;100.00;98714.47;10416988;28;20033;-76
2023/03/14 04:42:07;;;;;;;10.65;2.90;;;;;;;8.81;100.00;98714.72;10418584;28;20480;-77
2023/03/14 04:47:08;;;;;;;6.80;3.53;;;;;;;8.80;100.00;98718.44;10415871;28;20049;-77
2023/03/14 04:52:08;;;;;;;6.32;3.42;;;;;;;8.77;100.00;98705.44;10417591;28;20083;-74
2023/03/14 04:57:09;;;;;;;13.57;3.25;;;;;;;8.61;100.00;98713.25;10417337;28;20477;-76
2023/03/14 05:02:09;;;;;;;12.50;2.55;;;;;;;8.58;100.00;98704.78;10417549;28;20377;-77
2023/03/14 05:07:09;;;;;;;7.72;3.72;;;;;;;8.42;100.00;98694.72;10416154;28;20083;-76
2023/03/14 05:12:10;;;;;;;4.70;2.30;;;;;;;8.49;100.00;98698.16;10415316;28;20037;-77
2023/03/14 05:17:11;;;;;;;10.40;4.60;;;;;;;8.59;100.00;98747.72;10417263;28;20346;-77
2023/03/14 05:22:11;;;;;;;8.82;4.32;;;;;;;8.40;100.00;98759.72;10414879;28;20104;-78
2023/03/14 05:27:12;;;;;;;7.05;2.63;;;;;;;8.01;100.00;98780.06;10413936;28;20413;-78
2023/03/14 05:32:12;;;;;;;5.68;2.25;;;;;;;7.85;100.00;98795.88;10417822;28;20029;-78
2023/03/14 05:37:12;;;;;;;6.28;2.00;;;;;;;7.66;100.00;98816.66;10420962;28;20115;-80
2023/03/14 05:42:13;;;;;;;9.57;2.53;;;;;;;7.55;100.00;98812.06;10365252;28;20501;-77
2023/03/14 05:47:13;;;;;;;6.50;2.40;;;;;;;7.48;100.00;98832.06;10396724;28;20064;-76
2023/03/14 05:52:14;;;;;;;3.65;1.88;;;;;;;7.36;100.00;98842.78;10416189;28;20125;-76
2023/03/14 05:57:14;;;;;;;6.57;2.03;;;;;;;7.35;100.00;98868.06;10417894;28;20042;-76
2023/03/14 06:02:15;;;;;;;8.88;1.70;;;;;;;7.30;100.00;98874.09;10432468;28;20031;-79
2023/03/14 06:07:15;;;;;;;6.03;1.48;;;;;;;7.27;100.00;98890.72;10435807;28;20044;-78
2023/03/14 06:12:17;;;;;;;8.18;2.22;;;;;;;7.23;100.00;98897.59;10414266;28;20029;-78
2023/03/14 06:17:17;;;;;;;0.40;0.40;;;;;;;7.18;100.00;98902.84;10414849;28;20034;-79
2023/03/14 06:22:19;;;;;;;0.50;0.50;;;;;;;7.12;100.00;98904.56;10419429;28;20034;-77
2023/03/14 06:27:19;;;;;;;0.40;0.40;;;;;;;7.01;100.00;98918.75;10422634;28;20053;-79
2023/03/14 06:32:20;;;;;;;0.30;0.30;;;;;;;6.96;100.00;98943.66;10422859;28;20385;-80
2023/03/14 06:37:20;;;;;;;0.30;0.30;;;;;;;6.94;100.00;98958.38;10422747;28;20080;-77
2023/03/14 06:42:21;;;;;;;0.40;0.40;;;;;;;6.96;100.00;98975.13;10422849;28;20099;-77
2023/03/14 06:47:21;;;;;;;0.50;0.50;;;;;;;7.01;100.00;98994.09;10424373;28;20029;-80
2023/03/14 06:52:21;;;;;;;0.70;0.70;;;;;;;7.01;100.00;99009.44;10424637;28;20033;-78
2023/03/14 06:57:22;;;;;;;0.50;0.50;;;;;;;7.01;100.00;99033.66;10423482;28;20393;-80
2023/03/14 07:02:23;;;;;;;0.55;0.55;;;;;;;6.98;100.00;99043.78;10423912;28;20065;-79
2023/03/14 07:07:23;;;;;;;0.40;0.40;;;;;;;7.05;100.00;99056.38;10425011;28;20037;-77
2023/03/14 07:12:23;;;;;;;0.52;0.52;;;;;;;7.09;100.00;99066.50;10422604;28;20483;-79
2023/03/14 07:17:24;;;;;;;4.40;3.15;;;;;;;7.17;100.00;99090.44;10421141;28;20045;-79
2023/03/14 07:22:24;;;;;;;0.50;0.50;;;;;;;7.16;100.00;99106.81;10420256;28;20428;-79
2023/03/14 07:27:25;;;;;;;0.40;0.40;;;;;;;7.13;100.00;99135.00;10403780;28;20137;-79
2023/03/14 07:32:25;;;;;;;0.43;0.43;;;;;;;7.12;100.00;99141.44;10418307;28;20511;-78
2023/03/14 07:37:25;;;;;;;0.43;0.43;;;;;;;7.11;100.00;99168.56;10419068;28;20037;-81
2023/03/14 07:42:26;;;;;;;0.50;0.50;;;;;;;6.86;100.00;99203.47;10420954;28;20036;-80
2023/03/14 07:47:26;;;;;;;0.30;0.30;;;;;;;6.65;100.00;99236.91;10403896;28;20132;-78
2023/03/14 07:52:27;;;;;;;0.80;0.80;;;;;;;6.43;100.00;99257.84;10419041;28;20029;-79
2023/03/14 07:57:28;;;;;;;0.43;0.43;;;;;;;6.33;100.00;99277.13;10419086;28;20520;-78
2023/03/14 08:02:28;;;;;;;0.50;0.50;;;;;;;6.13;100.00;99295.97;10421041;28;20048;-80
2023/03/14 08:07:28;;;;;;;0.50;0.50;;;;;;;6.12;100.00;99323.84;10420832;28;20057;-78
2023/03/14 08:12:29;;;;;;;0.60;0.60;;;;;;;6.19;100.00;99339.97;10424736;28;20072;-78
2023/03/14 08:17:29;;;;;;;0.50;0.50;;;;;;;6.13;100.00;99368.53;10433393;28;20033;-77
2023/03/14 08:22:30;;;;;;;0.40;0.40;;;;;;;6.07;100.00;99388.16;10448014;28;20049;-78
2023/03/14 08:27:30;;;;;;;0.50;0.50;;;;;;;5.78;100.00;99421.56;10453694;28;20053;-79
2023/03/14 08:32:31;;;;;;;0.45;0.45;;;;;;;5.69;100.00;99446.94;10425856;28;20033;-77
2023/03/14 08:37:35;;;;;;;0.60;0.60;;;;;;;5.44;100.00;99477.00;10419887;28;20033;-79
2023/03/14 08:42:36;;;;;;;1.88;1.77;;;;;;;5.67;100.00;99484.72;10416451;28;20038;-77
2023/03/14 08:47:37;;;;;;;0.73;0.73;;;;;;;6.29;100.00;99502.53;10417598;28;20037;-78
2023/03/14 08:52:39;;;;;;;1.20;1.20;;;;;;;6.46;100.00;99529.03;10417870;28;20033;-79
2023/03/14 08:57:40;;;;;;;0.60;0.60;;;;;;;6.36;100.00;99544.72;10416164;28;20388;-80
2023/03/14 09:02:42;;;;;;;27.65;5.97;;;;;;;6.56;100.00;99567.09;10422407;28;20034;-79
2023/03/14 09:07:43;;;;;;;0.70;0.70;;;;;;;6.97;100.00;99575.00;10440180;28;20038;-81
2023/03/14 09:12:43;;;;;;;0.40;0.40;;;;;;;7.13;100.00;99589.94;10437112;28;20037;-83
2023/03/14 09:17:44;;;;;;;1.55;1.55;;;;;;;7.29;100.00;99614.78;10433144;28;20041;-84
2023/03/14 09:22:44;;;;;;;0.60;0.60;;;;;;;7.21;100.00;99621.19;10438193;28;20038;-82
2023/03/14 09:27:45;;;;;;;0.73;0.73;;;;;;;6.69;100.00;99660.44;10426963;28;20065;-82
2023/03/14 09:32:48;;;;;;;0.50;0.50;;;;;;;6.26;100.00;99698.34;10433734;28;20033;-80
2023/03/14 09:37:49;;;;;;;1.92;1.83;;;;;;;5.87;100.00;99717.69;10397816;28;20046;-80
2023/03/14 09:42:52;;;;;;;0.95;0.95;;;;;;;6.17;100.00;99721.88;10415128;28;20079;-80
2023/03/14 09:47:53;;;;;;;0.43;0.43;;;;;;;7.49;100.00;99728.72;10416115;28;20042;-80
2023/03/14 09:53:00;;;;;;;0.95;0.95;;;;;;;8.23;100.00;99748.38;10413841;28;20396;-80
2023/03/14 09:58:03;;;;;;;0.50;0.50;;;;;;;8.01;100.00;99772.91;10413102;28;20049;-80
2023/03/14 10:03:13;;;;;;;0.60;0.60;;;;;;;7.23;100.00;99778.81;10396992;28;20044;-80
2023/03/14 10:08:13;;;;;;;0.35;0.35;;;;;;;7.06;100.00;99800.94;10414261;28;20174;-79
2023/03/14 10:13:26;;;;;;;22.92;5.40;;;;;;;7.00;100.00;99816.00;10413795;28;20160;-79
2023/03/14 10:18:28;;;;;;;23.38;4.93;;;;;;;7.46;100.00;99826.91;10413514;28;20069;-78
2023/03/14 10:23:30;;;;;;;19.92;5.28;;;;;;;7.56;100.00;99872.34;10414676;28;20037;-78
2023/03/14 10:28:38;;;;;;;17.83;6.13;;;;;;;7.23;100.00;99889.22;10396732;28;20050;-77
2023/03/14 10:33:39;;;;;;;16.13;5.00;;;;;;;7.46;100.00;99904.22;10413909;28;20033;-76
2023/03/14 10:38:39;;;;;;;13.25;4.57;;;;;;;7.50;100.00;99918.09;10412330;28;20433;-75
2023/03/14 10:43:40;;;;;;;18.20;5.35;;;;;;;7.44;100.00;99930.53;10412293;28;20251;-75
2023/03/14 10:48:41;;;;;;;26.75;4.10;;;;;;;7.33;100.00;99949.94;10396570;28;20113;-74
2023/03/14 10:53:48;;;;;;;19.48;5.22;;;;;;;7.61;100.00;99971.44;10413257;28;20124;-74
2023/03/14 10:58:50;;;;;;;12.65;3.63;;;;;;;7.73;100.00;99995.94;10412055;28;20026;-74
2023/03/14 11:04:03;;;;;;;8.32;3.42;;;;;;;7.71;100.00;100006.91;10395455;28;20025;-74
2023/03/14 11:09:10;;;;;;;12.85;3.92;;;;;;;9.62;100.00;100017.22;10385781;28;20036;-75
2023/03/14 11:14:14;;;;;;;;;;;;;;;10.94;100.00;100027.31;10403782;28;20472;-74
2023/03/14 11:19:39;;;;;;;13.10;3.10;;;;;;;11.96;100.00;100048.59;10419928;28;19913;-74
2023/03/14 11:25:12;;;;;;;11.68;3.38;;;;;;;11.88;100.00;100080.66;10418621;28;20462;-74
2023/03/14 11:30:20;;;;;;;11.15;2.85;;;;;;;12.12;100.00;100082.44;10419179;28;20401;-75
2023/03/14 11:35:24;;;;;;;17.35;3.03;;;;;;;12.24;100.00;100110.47;10419701;28;20029;-75
2023/03/14 11:40:26;;;;;;;10.52;3.08;;;;;;;12.41;100.00;100121.56;10418990;28;20449;-76
2023/03/14 11:45:35;;;;;;;13.18;3.05;;;;;;;12.83;100.00;100137.06;10402614;28;20195;-76
2023/03/14 11:50:35;;;;;;;13.63;4.10;;;;;;;12.13;100.00;100146.53;10386429;28;20041;-76
2023/03/14 11:55:36;;;;;;;13.90;3.15;;;;;;;11.74;100.00;100164.84;10384890;28;20026;-76
2023/03/14 12:00:38;;;;;;;14.13;2.15;;;;;;;10.99;100.00;100180.25;10416868;28;20057;-76
2023/03/14 12:05:53;;;;;;;6.95;2.80;;;;;;;10.79;100.00;100183.91;10417135;28;20049;-76
2023/03/14 12:11:08;;;;;;;11.30;3.65;;;;;;;10.86;100.00;100192.81;10418429;28;20036;-77
2023/03/14 12:16:30;;;;;;;10.88;3.28;;;;;;;10.68;100.00;100208.94;10417323;28;20040;-77
2023/03/14 12:21:51;;;;;;;3.13;2.05;;;;;;;11.37;100.00;100213.53;10416584;28;20033;-78
2023/03/14 12:26:56;;;;;;;12.77;3.22;;;;;;;12.29;100.00;100219.22;10416293;28;20053;-78
2023/03/14 12:32:00;;;;;;;14.30;3.08;;;;;;;12.94;100.00;100224.06;10400376;28;20031;-78
2023/03/14 12:37:05;;;;;;;8.07;2.80;;;;;;;12.14;100.00;100243.19;10417872;28;20025;-78
2023/03/14 12:42:10;;;;;;;10.57;3.72;;;;;;;12.09;100.00;100252.00;10416221;28;20032;-79
2023/03/14 12:47:14;;;;;;;9.23;2.20;;;;;;;12.95;100.00;100254.78;10399936;28;20389;-79
2023/03/14 12:52:35;;;;;;;12.38;2.67;;;;;;;11.92;100.00;100275.31;10417872;28;20099;-79
2023/03/14 12:57:40;;;;;;;7.88;2.33;;;;;;;12.10;100.00;100307.09;10414215;28;20052;-78
2023/03/14 13:02:41;;;;;;;6.72;2.42;;;;;;;11.88;100.00;100313.97;10422435;28;20109;-78
2023/03/14 13:07:43;;;;;;;15.23;2.55;;;;;;;11.41;100.00;100334.03;10404672;28;20037;-78
2023/03/14 13:12:52;;;;;;;6.15;2.55;;;;;;;10.27;100.00;100353.53;10422546;28;20061;-78
2023/03/14 13:17:54;;;;;;;11.90;2.85;;;;;;;9.83;100.00;100363.09;10434819;28;20033;-78
2023/03/14 13:22:54;;;;;;;9.43;2.55;;;;;;;9.36;100.00;100389.16;10427842;28;20044;-78
2023/03/14 13:27:55;;;;;;;7.15;2.50;;;;;;;9.14;100.00;100387.59;10426715;28;20057;-78
2023/03/14 13:32:55;;;;;;;3.63;2.10;;;;;;;9.05;100.00;100403.97;10428161;28;20033;-78
2023/03/14 13:37:58;;;;;;;17.23;3.72;;;;;;;8.82;100.00;100412.34;10435710;28;20029;-78
2023/03/14 13:43:11;;;;;;;11.63;2.95;;;;;;;8.77;100.00;100422.88;10434857;28;20044;-78
2023/03/14 13:48:12;;;;;;;2.67;2.45;;;;;;;8.66;100.00;100430.72;10426155;28;20037;-78
2023/03/14 13:53:12;;;;;;;19.00;3.42;;;;;;;8.48;100.00;100442.00;10392776;28;20037;-78
2023/03/14 13:58:28;;;;;;;6.75;2.50;;;;;;;8.18;100.00;100450.22;10426337;28;20045;-78
2023/03/14 14:03:31;;;;;;;5.25;3.05;;;;;;;8.06;100.00;100467.94;10426135;28;20397;-78
2023/03/14 14:08:31;;;;;;;14.73;2.70;;;;;;;7.98;100.00;100476.97;10432246;28;20033;-77
2023/03/14 14:13:32;;;;;;;5.47;2.05;;;;;;;7.94;100.00;100489.16;10411060;28;20037;-78
2023/03/14 14:18:33;;;;;;;16.02;2.13;;;;;;;7.82;100.00;100496.91;10418640;28;20021;-77
2023/03/14 14:23:33;;;;;;;10.45;3.25;;;;;;;7.98;100.00;100514.72;10419145;28;20369;-77
2023/03/14 14:28:35;;;;;;;2.90;2.03;;;;;;;7.94;100.00;100524.19;10402193;28;20049;-78
2023/03/14 14:33:46;;;;;;;5.65;2.92;;;;;;;7.82;100.00;100540.06;10399551;28;20368;-78
2023/03/14 14:38:59;;;;;;;17.30;3.25;;;;;;;7.99;100.00;100548.75;10418175;28;20065;-77
2023/03/14 14:43:59;;;;;;;13.25;3.22;;;;;;;8.20;100.00;100547.09;10421728;28;20388;-78
2023/03/14 14:49:10;;;;;;;6.10;1.63;;;;;;;8.38;100.00;100564.56;10422206;28;20037;-78
2023/03/14 14:54:18;;;;;;;6.80;2.80;;;;;;;8.37;100.00;100581.75;10427274;28;20030;-78
2023/03/14 14:59:21;;;;;;;3.95;2.75;;;;;;;8.04;100.00;100589.47;10422139;28;20069;-77
2023/03/14 15:04:22;;;;;;;2.00;1.75;;;;;;;8.28;100.00;100609.03;10422045;28;20435;-77
2023/03/14 15:09:22;;;;;;;11.82;2.13;;;;;;;8.59;100.00;100625.84;10421277;28;20112;-77
2023/03/14 15:14:23;;;;;;;7.82;2.15;;;;;;;8.62;100.00;100621.91;10420851;28;20465;-77
2023/03/14 15:19:24;;;;;;;12.35;2.35;;;;;;;8.41;100.00;100638.91;10420233;28;20037;-77
2023/03/14 15:24:25;;;;;;;10.20;3.00;;;;;;;7.87;100.00;100644.59;10420947;28;20448;-77
2023/03/14 15:29:25;;;;;;;7.90;2.35;;;;;;;7.64;100.00;100652.78;10421032;28;20057;-77
2023/03/14 15:34:27;;;;;;;3.42;1.83;;;;;;;7.38;100.00;100666.69;10419808;28;20029;-78
2023/03/14 15:39:27;;;;;;;5.63;1.45;;;;;;;7.40;100.00;100668.19;10420002;28;20528;-77
2023/03/14 15:44:28;;;;;;;7.95;2.08;;;;;;;7.29;100.00;100684.78;10419146;28;20038;-77
2023/03/14 15:49:28;;;;;;;4.45;2.15;;;;;;;7.36;100.00;100687.56;10418945;28;20128;-77
2023/03/14 15:54:28;;;;;;;1.60;1.13;;;;;;;7.40;100.00;100684.34;10402211;28;20061;-77
2023/03/14 15:59:29;;;;;;;6.43;1.88;;;;;;;7.38;100.00;100707.09;10419385;28;20037;-77
2023/03/14 16:04:29;;;;;;;8.57;2.60;;;;;;;7.20;100.00;100704.69;10418543;28;20045;-77
2023/03/14 16:09:30;;;;;;;6.93;2.00;;;;;;;6.96;100.00;100719.19;10417112;28;20365;-77
2023/03/14 16:14:31;;;;;;;9.07;3.08;;;;;;;6.76;100.00;100734.94;10416273;28;20036;-77
2023/03/14 16:19:32;;;;;;;6.05;2.33;;;;;;;6.75;100.00;100734.09;10418161;28;20053;-76
2023/03/14 16:24:32;;;;;;;10.35;1.90;;;;;;;6.82;100.00;100736.09;10416410;28;20077;-76
2023/03/14 16:29:32;;;;;;;6.20;2.58;;;;;;;6.65;100.00;100746.09;10417499;28;20057;-77
2023/03/14 16:34:33;;;;;;;5.78;1.88;;;;;;;6.59;100.00;100752.19;10416984;28;20060;-77
2023/03/14 16:39:33;;;;;;;6.70;2.03;;;;;;;6.47;100.00;100762.47;10417640;28;20532;-77
2023/03/14 16:44:34;;;;;;;10.20;2.72;;;;;;;6.27;100.00;100765.59;10418152;28;20049;-77
2023/03/14 16:49:34;;;;;;;10.80;2.50;;;;;;;6.15;100.00;100777.72;10416793;28;20033;-77
2023/03/14 16:54:35;;;;;;;14.18;3.38;;;;;;;5.97;100.00;100783.31;10417172;28;20079;-77
2023/03/14 16:59:35;;;;;;;11.25;2.65;;;;;;;5.81;100.00;100805.63;10398920;28;20120;-76
2023/03/14 17:04:39;;;;;;;9.35;2.95;;;;;;;5.60;100.00;100814.19;10399506;28;20108;-77
2023/03/14 17:09:39;;;;;;;6.30;2.40;;;;;;;5.40;100.00;100828.94;10400773;28;20112;-77
2023/03/14 17:14:40;;;;;;;6.85;2.53;;;;;;;5.28;100.00;100833.78;10398529;28;20033;-77
2023/03/14 17:19:40;;;;;;;11.98;2.13;;;;;;;5.14;100.00;100831.75;10416399;28;20453;-77
2023/03/14 17:24:41;;;;;;;7.50;3.50;;;;;;;5.04;100.00;100834.56;10416188;28;20138;-77
2023/03/14 17:29:41;;;;;;;6.50;3.00;;;;;;;4.87;100.00;100846.22;10416651;28;20065;-76
2023/03/14 17:34:42;;;;;;;6.45;2.65;;;;;;;4.74;100.00;100853.91;10415882;28;20041;-77
2023/03/14 17:39:42;;;;;;;5.03;2.63;;;;;;;4.58;100.00;100868.06;10398320;28;20150;-76
2023/03/14 17:44:42;;;;;;;8.60;3.00;;;;;;;4.47;100.00;100881.72;10415824;28;20060;-77
2023/03/14 17:49:45;;;;;;;3.45;2.80;;;;;;;4.41;100.00;100889.44;10415333;28;20454;-77
2023/03/14 17:54:45;;;;;;;3.15;1.80;;;;;;;4.34;100.00;100900.91;10413877;28;20041;-76
2023/03/14 17:59:46;;;;;;;11.77;2.55;;;;;;;4.26;100.00;100906.25;10414508;28;20068;-76
2023/03/14 18:04:46;;;;;;;28.00;4.03;;;;;;;4.14;100.00;100914.50;10414716;28;20158;-76
2023/03/14 18:09:47;;;;;;;13.98;3.83;;;;;;;4.08;100.00;100912.44;10413278;28;20041;-76
2023/03/14 18:14:47;;;;;;;8.93;2.67;;;;;;;4.01;100.00;100926.63;10414143;28;20029;-77
2023/03/14 18:19:48;;;;;;;6.32;3.53;;;;;;;3.93;100.00;100928.25;10421794;28;20431;-76
2023/03/14 18:24:49;;;;;;;14.02;4.53;;;;;;;3.92;100.00;100933.75;10422046;28;20069;-77
2023/03/14 18:29:49;;;;;;;18.05;4.90;;;;;;;3.86;100.00;100935.22;10422713;28;20144;-77
2023/03/14 18:34:50;;;;;;;6.30;3.10;;;;;;;3.93;100.00;100935.44;10420471;28;20056;-77
2023/03/14 18:39:50;;;;;;;7.82;3.53;;;;;;;4.09;100.00;100943.63;10420802;28;20060;-77
2023/03/14 18:44:50;;;;;;;16.88;4.28;;;;;;;4.26;100.00;100949.97;10422010;28;20029;-77
2023/03/14 18:49:51;;;;;;;7.47;3.63;;;;;;;4.38;100.00;100946.03;10420466;28;20429;-77
2023/03/14 18:54:51;;;;;;;9.23;4.75;;;;;;;4.54;100.00;100953.38;10404886;28;20116;-77
2023/03/14 18:59:55;;;;;;;6.45;3.55;;;;;;;4.62;100.00;100953.41;10422042;28;20136;-76
2023/03/14 19:04:56;;;;;;;15.60;3.70;;;;;;;4.52;100.00;100949.97;10420257;28;20075;-76
2023/03/14 19:09:56;;;;;;;13.18;4.90;;;;;;;4.35;100.00;100940.16;10422446;28;20453;-76
2023/03/14 19:14:57;;;;;;;8.40;4.28;;;;;;;4.38;100.00;100935.31;10419752;28;20097;-76
2023/03/14 19:19:57;;;;;;;13.48;4.50;;;;;;;4.62;100.00;100941.84;10421484;28;20052;-76
2023/03/14 19:24:58;;;;;;;10.30;4.15;;;;;;;4.85;100.00;100943.00;10424970;28;20038;-77
2023/03/14 19:29:58;;;;;;;12.82;4.63;;;;;;;5.09;100.00;100949.50;10418528;28;20133;-76
2023/03/14 19:34:58;;;;;;;6.82;2.83;;;;;;;5.19;100.00;100939.47;10420341;28;20091;-77
2023/03/14 19:39:59;;;;;;;7.72;3.25;;;;;;;5.19;100.00;100934.09;10422826;28;20037;-78
2023/03/14 19:44:59;;;;;;;13.85;3.33;;;;;;;5.09;100.00;100942.28;10422396;28;20461;-76
2023/03/14 19:50:00;;;;;;;12.65;4.68;;;;;;;5.11;100.00;100955.53;10418674;28;20133;-78
2023/03/14 19:55:00;;;;;;;5.07;3.65;;;;;;;5.16;100.00;100968.47;10419142;28;20061;-77
2023/03/14 20:00:01;;;;;;;7.40;4.03;;;;;;;5.10;100.00;100960.03;10419932;28;20465;-77
2023/03/14 20:05:01;;;;;;;7.75;2.08;;;;;;;5.03;100.00;100974.28;10419680;28;20439;-77
2023/03/14 20:10:02;;;;;;;14.57;4.28;;;;;;;5.01;100.00;100995.06;10420705;28;20119;-78
2023/03/14 20:15:03;;;;;;;15.07;4.32;;;;;;;4.89;100.00;100987.28;10401035;28;20032;-76
2023/03/14 20:20:08;;;;;;;16.05;5.32;;;;;;;4.91;100.00;100992.47;10419328;28;20033;-78
2023/03/14 20:25:10;;;;;;;9.15;3.83;;;;;;;5.09;100.00;100984.38;10418424;28;20034;-75
2023/03/14 20:30:12;;;;;;;11.68;3.13;;;;;;;5.27;100.00;101012.00;10400422;28;20054;-77
2023/03/14 20:35:18;;;;;;;9.65;3.20;;;;;;;5.36;100.00;101000.28;10416929;28;20045;-76
2023/03/14 20:40:19;;;;;;;11.13;2.97;;;;;;;5.38;100.00;101007.34;10416990;28;20029;-73
2023/03/14 20:45:20;;;;;;;6.10;2.67;;;;;;;5.38;100.00;101015.41;10416158;28;20033;-74
2023/03/14 20:50:20;;;;;;;7.88;2.58;;;;;;;5.38;100.00;101023.44;10417382;28;20484;-75
2023/03/14 20:55:20;;;;;;;4.68;2.33;;;;;;;5.44;100.00;101018.28;10414730;28;20061;-74
2023/03/14 21:00:21;;;;;;;4.68;2.17;;;;;;;5.58;100.00;101035.63;10398378;28;20136;-74
2023/03/14 21:05:22;;;;;;;4.80;2.67;;;;;;;5.66;100.00;101035.66;10417056;28;20033;-74
2023/03/14 21:10:23;;;;;;;6.18;2.08;;;;;;;5.75;100.00;101026.63;10415197;28;20036;-74
2023/03/14 21:15:23;;;;;;;16.17;3.05;;;;;;;5.77;100.00;101040.72;10416213;28;20037;-72
2023/03/14 21:20:24;;;;;;;2.80;1.77;;;;;;;5.71;100.00;101052.16;10416181;28;20151;-76
2023/03/14 21:25:25;;;;;;;1.83;1.38;;;;;;;5.48;100.00;101067.13;10414480;28;20103;-74
2023/03/14 21:30:25;;;;;;;3.08;2.33;;;;;;;4.81;100.00;101105.28;10398330;28;20080;-73
2023/03/14 21:35:26;;;;;;;9.07;2.97;;;;;;;4.42;100.00;101113.66;10419983;28;20079;-72
2023/03/14 21:40:26;;;;;;;2.55;1.92;;;;;;;4.22;100.00;101136.22;10413897;28;20397;-71
2023/03/14 21:45:27;;;;;;;4.90;1.15;;;;;;;3.71;100.00;101148.31;10415115;28;20461;-70
2023/03/14 21:50:28;;;;;;;6.05;1.33;;;;;;;3.27;100.00;101148.03;10397096;28;20108;-70
2023/03/14 21:55:28;;;;;;;2.38;1.00;;;;;;;3.07;100.00;101146.38;10380969;28;20037;-71
2023/03/14 22:00:29;;;;;;;2.33;1.50;;;;;;;3.05;100.00;101145.66;10415263;28;20124;-72
2023/03/14 22:05:29;;;;;;;15.52;2.63;;;;;;;3.10;100.00;101149.59;10415069;28;20116;-72
2023/03/14 22:10:29;;;;;;;7.00;2.00;;;;;;;3.17;100.00;101149.88;10413127;28;20041;-73
2023/03/14 22:15:30;;;;;;;7.85;2.08;;;;;;;3.23;100.00;101151.97;10414733;28;20091;-73
2023/03/14 22:20:30;;;;;;;13.20;2.03;;;;;;;3.34;100.00;101148.28;10413490;28;20471;-74
2023/03/14 22:25:31;;;;;;;10.55;3.75;;;;;;;3.36;100.00;101143.63;10412028;28;20034;-75
2023/03/14 22:30:31;;;;;;;12.15;2.95;;;;;;;3.39;100.00;101140.69;10414453;28;20103;-74
2023/03/14 22:35:32;;;;;;;9.35;2.83;;;;;;;3.44;100.00;101152.63;10413759;28;20037;-73
2023/03/14 22:40:32;;;;;;;3.10;1.63;;;;;;;3.46;100.00;101147.13;10395895;28;20164;-76
2023/03/14 22:45:32;;;;;;;2.22;1.73;;;;;;;3.46;100.00;101153.31;10413979;28;20056;-76
2023/03/14 22:50:33;;;;;;;2.80;1.80;;;;;;;3.25;100.00;101156.22;10414405;28;20042;-76
2023/03/14 22:55:33;;;;;;;2.83;2.15;;;;;;;3.20;100.00;101157.63;10412691;28;20035;-77
2023/03/14 23:00:34;;;;;;;2.47;2.30;;;;;;;3.40;100.00;101159.25;10414392;28;20465;-77
2023/03/14 23:05:34;;;;;;;7.13;2.70;;;;;;;3.49;100.00;101160.22;10419844;28;20049;-77